Time;durP1;ratioP1;P1;durP2;ratioP2;P2;SDS_P1;SDS_P2;PMS_P1;PMS_P2;Temp;Humidity;BMP_temperature;BMP_pressure;BME280_temperature;BME280_humidity;BME280_pressure;Samples;Min_cycle;Max_cycle;Signal;HPM_P1;HPM_P2
2023/07/03 00:01:15;;;;;;;0.40;0.35;;;;;;;;;;5013403;28;20058;-80
2023/07/03 00:03:41;;;;;;;0.10;0.10;;;;;;;;;;5032564;28;20054;-80
2023/07/03 00:06:08;;;;;;;0.15;0.15;;;;;;;;;;5031274;28;20053;-80
2023/07/03 00:08:34;;;;;;;0.17;0.17;;;;;;;;;;5027026;28;20054;-79
2023/07/03 00:11:02;;;;;;;0.10;0.10;;;;;;;;;;5031343;28;20061;-80
2023/07/03 00:13:28;;;;;;;0.40;0.40;;;;;;;;;;5034216;28;20588;-80
2023/07/03 00:16:01;;;;;;;0.10;0.10;;;;;;;;;;5013901;28;20230;-79
2023/07/03 00:18:31;;;;;;;0.13;0.13;;;;;;;;;;5012790;28;21887;-80
2023/07/03 00:20:57;;;;;;;0.10;0.10;;;;;;;;;;5011737;28;20097;-79
2023/07/03 00:23:24;;;;;;;5.00;0.90;;;;;;;;;;5014267;28;20058;-80
2023/07/03 00:25:51;;;;;;;0.30;0.30;;;;;;;;;;5013159;28;20058;-80
2023/07/03 00:28:18;;;;;;;0.25;0.20;;;;;;;;;;5012147;28;20105;-79
2023/07/03 00:30:44;;;;;;;0.10;0.10;;;;;;;;;;5029481;28;20061;-81
2023/07/03 00:33:11;;;;;;;0.10;0.10;;;;;;;;;;5031558;28;20115;-80
2023/07/03 00:35:39;;;;;;;0.10;0.10;;;;;;;;;;5029329;28;20053;-79
2023/07/03 00:38:05;;;;;;;0.10;0.10;;;;;;;;;;5018268;28;20057;-80
2023/07/03 00:40:32;;;;;;;0.38;0.30;;;;;;;;;;5028818;28;20058;-80
2023/07/03 00:42:58;;;;;;;0.63;0.63;;;;;;;;;;5015331;28;20113;-81
2023/07/03 00:45:25;;;;;;;0.17;0.17;;;;;;;;;;5024358;28;20054;-81
2023/07/03 00:47:52;;;;;;;0.10;0.10;;;;;;;;;;5012061;28;20133;-80
2023/07/03 00:50:19;;;;;;;0.20;0.20;;;;;;;;;;5012829;28;20138;-79
2023/07/03 00:52:49;;;;;;;0.10;0.10;;;;;;;;;;5009120;28;20065;-79
2023/07/03 00:55:16;;;;;;;0.10;0.10;;;;;;;;;;5012304;28;20078;-80
2023/07/03 00:57:43;;;;;;;0.22;0.20;;;;;;;;;;5029893;28;20061;-79
2023/07/03 01:00:09;;;;;;;0.20;0.20;;;;;;;;;;5030761;28;20054;-80
2023/07/03 01:02:38;;;;;;;0.35;0.22;;;;;;;;;;5030289;28;20030;-80
2023/07/03 01:05:09;;;;;;;0.10;0.10;;;;;;;;;;5008835;28;20124;-80
2023/07/03 01:07:37;;;;;;;0.20;0.20;;;;;;;;;;5020680;28;20105;-79
2023/07/03 01:10:09;;;;;;;0.10;0.10;;;;;;;;;;5011701;28;20054;-81
2023/07/03 01:12:38;;;;;;;0.10;0.10;;;;;;;;;;5030151;28;20054;-79
2023/07/03 01:15:07;;;;;;;8.52;0.50;;;;;;;;;;5014079;28;20096;-79
2023/07/03 01:17:35;;;;;;;0.10;0.10;;;;;;;;;;5016902;28;20050;-79
2023/07/03 01:20:03;;;;;;;1.13;0.63;;;;;;;;;;5012612;28;20050;-80
2023/07/03 01:22:37;;;;;;;0.10;0.10;;;;;;;;;;5012865;28;20060;-80
2023/07/03 01:25:08;;;;;;;0.10;0.10;;;;;;;;;;5011767;28;20053;-80
2023/07/03 01:27:37;;;;;;;0.15;0.15;;;;;;;;;;5001693;28;20109;-80
2023/07/03 01:30:05;;;;;;;1.33;0.20;;;;;;;;;;5012091;28;20058;-80
2023/07/03 01:32:34;;;;;;;0.10;0.10;;;;;;;;;;5032018;28;20053;-80
2023/07/03 01:35:16;;;;;;;0.22;0.20;;;;;;;;;;5027701;28;20064;-78
2023/07/03 01:37:46;;;;;;;0.22;0.22;;;;;;;;;;5028960;28;20069;-80
2023/07/03 01:40:14;;;;;;;0.10;0.10;;;;;;;;;;5000924;28;20064;-80
2023/07/03 01:42:41;;;;;;;0.10;0.10;;;;;;;;;;5039636;28;20053;-80
2023/07/03 01:45:08;;;;;;;0.10;0.10;;;;;;;;;;5028160;28;20050;-80
2023/07/03 01:47:36;;;;;;;0.20;0.20;;;;;;;;;;5011704;28;20113;-79
2023/07/03 01:50:03;;;;;;;0.15;0.15;;;;;;;;;;4992254;28;20054;-79
2023/07/03 01:52:36;;;;;;;0.10;0.10;;;;;;;;;;4998033;28;20058;-79
2023/07/03 01:55:05;;;;;;;0.20;0.17;;;;;;;;;;5010690;28;20058;-79
2023/07/03 01:57:32;;;;;;;0.10;0.10;;;;;;;;;;5003529;28;20046;-78
2023/07/03 02:00:00;;;;;;;0.20;0.20;;;;;;;;;;5026277;28;20062;-78
2023/07/03 02:02:29;;;;;;;0.10;0.10;;;;;;;;;;5008636;28;20055;-80
2023/07/03 02:04:59;;;;;;;0.17;0.17;;;;;;;;;;5010640;28;20097;-79
2023/07/03 02:07:28;;;;;;;0.20;0.20;;;;;;;;;;4992327;28;20056;-79
2023/07/03 02:09:54;;;;;;;0.52;0.50;;;;;;;;;;5006291;28;20133;-80
2023/07/03 02:12:21;;;;;;;0.10;0.10;;;;;;;;;;5008505;28;20061;-80
2023/07/03 02:14:47;;;;;;;0.10;0.10;;;;;;;;;;5009548;28;20057;-80
2023/07/03 02:17:14;;;;;;;1.27;1.27;;;;;;;;;;5006268;28;20062;-79
2023/07/03 02:19:40;;;;;;;1.08;0.68;;;;;;;;;;5003351;28;20058;-80
2023/07/03 02:22:07;;;;;;;0.25;0.25;;;;;;;;;;5008118;28;20101;-79
2023/07/03 02:24:34;;;;;;;0.10;0.10;;;;;;;;;;4992445;28;20066;-79
2023/07/03 02:27:00;;;;;;;0.38;0.25;;;;;;;;;;5008003;28;20062;-80
2023/07/03 02:29:27;;;;;;;0.10;0.10;;;;;;;;;;5007669;28;20133;-79
2023/07/03 02:31:53;;;;;;;1.42;0.77;;;;;;;;;;4991465;28;20919;-79
2023/07/03 02:34:21;;;;;;;0.75;0.75;;;;;;;;;;4991959;28;20078;-80
2023/07/03 02:36:47;;;;;;;0.63;0.63;;;;;;;;;;4990106;28;20086;-80
2023/07/03 02:39:14;;;;;;;0.10;0.10;;;;;;;;;;4991021;28;20046;-79
2023/07/03 02:41:40;;;;;;;0.17;0.17;;;;;;;;;;4992155;28;20034;-79
2023/07/03 02:44:06;;;;;;;0.40;0.40;;;;;;;;;;5009740;28;20493;-79
2023/07/03 02:46:33;;;;;;;0.10;0.10;;;;;;;;;;4990701;28;20056;-80
2023/07/03 02:48:59;;;;;;;5.97;1.52;;;;;;;;;;4989573;28;20605;-80
2023/07/03 02:51:26;;;;;;;0.10;0.10;;;;;;;;;;4989738;28;20067;-80
2023/07/03 02:53:52;;;;;;;0.10;0.10;;;;;;;;;;4990550;28;20062;-80
2023/07/03 02:56:19;;;;;;;0.13;0.13;;;;;;;;;;4991760;28;20501;-80
2023/07/03 02:58:45;;;;;;;0.20;0.20;;;;;;;;;;5006534;28;20509;-78
2023/07/03 03:01:11;;;;;;;0.25;0.25;;;;;;;;;;5020145;28;20058;-79
2023/07/03 03:03:38;;;;;;;0.10;0.10;;;;;;;;;;5029408;28;20089;-79
2023/07/03 03:06:04;;;;;;;0.43;0.43;;;;;;;;;;5027117;28;20501;-79
2023/07/03 03:08:31;;;;;;;0.32;0.30;;;;;;;;;;5021894;28;20181;-80
2023/07/03 03:10:57;;;;;;;0.20;0.20;;;;;;;;;;5010892;28;20134;-80
2023/07/03 03:13:24;;;;;;;0.22;0.22;;;;;;;;;;5011157;28;20117;-80
2023/07/03 03:15:51;;;;;;;11.60;0.45;;;;;;;;;;5026072;28;20042;-79
2023/07/03 03:18:18;;;;;;;0.10;0.10;;;;;;;;;;4995465;28;20066;-79
2023/07/03 03:20:44;;;;;;;0.10;0.10;;;;;;;;;;5009807;28;20030;-80
2023/07/03 03:23:11;;;;;;;0.10;0.10;;;;;;;;;;5027624;28;20158;-80
2023/07/03 03:25:37;;;;;;;3.90;1.38;;;;;;;;;;5010990;28;20122;-79
2023/07/03 03:28:04;;;;;;;0.10;0.10;;;;;;;;;;5010940;28;20542;-79
2023/07/03 03:30:30;;;;;;;0.73;0.50;;;;;;;;;;5027054;28;20072;-80
2023/07/03 03:32:57;;;;;;;0.10;0.10;;;;;;;;;;5011004;28;20128;-79
2023/07/03 03:35:23;;;;;;;1.00;0.52;;;;;;;;;;5027335;28;20526;-79
2023/07/03 03:37:50;;;;;;;0.10;0.10;;;;;;;;;;5009453;28;20057;-79
2023/07/03 03:40:16;;;;;;;3.67;0.93;;;;;;;;;;5028360;28;20102;-80
2023/07/03 03:42:42;;;;;;;0.90;0.15;;;;;;;;;;5023110;28;20601;-80
2023/07/03 03:45:09;;;;;;;0.10;0.10;;;;;;;;;;5007815;28;20054;-80
2023/07/03 03:47:35;;;;;;;0.10;0.10;;;;;;;;;;5011572;28;20045;-79
2023/07/03 03:50:02;;;;;;;1.52;1.00;;;;;;;;;;5016514;28;20060;-79
2023/07/03 03:52:29;;;;;;;0.10;0.10;;;;;;;;;;5027939;28;20057;-79
2023/07/03 03:54:56;;;;;;;0.15;0.15;;;;;;;;;;5028434;28;20648;-80
2023/07/03 03:57:22;;;;;;;2.70;0.90;;;;;;;;;;5027376;28;20528;-79
2023/07/03 03:59:48;;;;;;;0.20;0.20;;;;;;;;;;5026563;28;20081;-79
2023/07/03 04:12:58;;;;;;;;;;;;;;;;;;4954007;28;20118;-79
2023/07/03 04:15:25;;;;;;;0.10;0.10;;;;;;;;;;4958290;28;47550;-78
2023/07/03 04:17:51;;;;;;;0.10;0.10;;;;;;;;;;4966037;28;20059;-79
2023/07/03 04:23:39;;;;;;;0.10;0.10;;;;;;;;;;4960051;28;20071;-80
2023/07/03 04:26:05;;;;;;;0.10;0.10;;;;;;;;;;4940425;28;20571;-79
2023/07/03 04:28:32;;;;;;;0.10;0.10;;;;;;;;;;4970229;28;20067;-78
2023/07/03 04:48:11;;;;;;;0.10;0.10;;;;;;;;;;5023701;28;19964;-78
2023/07/03 04:50:37;;;;;;;0.20;0.20;;;;;;;;;;5024606;28;20046;-79
2023/07/03 04:53:03;;;;;;;0.10;0.10;;;;;;;;;;5035074;28;20157;-80
2023/07/03 04:55:31;;;;;;;0.10;0.10;;;;;;;;;;5030877;28;20433;-79
2023/07/03 04:57:59;;;;;;;0.40;0.40;;;;;;;;;;5030457;28;20120;-80
2023/07/03 05:00:27;;;;;;;0.10;0.10;;;;;;;;;;5011344;28;20069;-79
2023/07/03 05:02:56;;;;;;;0.20;0.20;;;;;;;;;;5014830;28;20058;-79
2023/07/03 05:05:23;;;;;;;0.10;0.10;;;;;;;;;;5013555;28;21120;-79
2023/07/03 05:07:49;;;;;;;0.10;0.10;;;;;;;;;;5013959;28;20062;-79
2023/07/03 05:10:17;;;;;;;0.10;0.10;;;;;;;;;;5011559;28;20132;-79
2023/07/03 05:12:44;;;;;;;0.10;0.10;;;;;;;;;;5015321;28;20068;-79
2023/07/03 05:15:12;;;;;;;0.10;0.10;;;;;;;;;;5031878;28;20053;-79
2023/07/03 05:17:39;;;;;;;0.43;0.40;;;;;;;;;;5031029;28;20053;-80
2023/07/03 05:20:06;;;;;;;0.10;0.10;;;;;;;;;;5022414;28;20050;-79
2023/07/03 05:22:32;;;;;;;0.13;0.13;;;;;;;;;;5008838;28;20057;-79
2023/07/03 05:45:55;;;;;;;0.10;0.10;;;;;;;;;;5021373;28;20038;-80
2023/07/03 05:48:23;;;;;;;0.15;0.15;;;;;;;;;;5029016;28;20109;-80
2023/07/03 05:50:49;;;;;;;0.20;0.20;;;;;;;;;;5012115;28;20888;-79
2023/07/03 05:53:16;;;;;;;0.60;0.40;;;;;;;;;;5007940;28;20426;-79
2023/07/03 05:55:43;;;;;;;1.75;0.68;;;;;;;;;;4998792;28;20054;-80
2023/07/03 05:58:11;;;;;;;0.10;0.10;;;;;;;;;;5023395;28;20072;-77
2023/07/03 06:00:37;;;;;;;0.20;0.20;;;;;;;;;;5018894;28;20057;-77
2023/07/03 06:03:04;;;;;;;0.10;0.10;;;;;;;;;;5025118;28;20144;-77
2023/07/03 06:05:31;;;;;;;0.10;0.10;;;;;;;;;;5023967;28;20069;-78
2023/07/03 06:07:57;;;;;;;0.10;0.10;;;;;;;;;;5021509;28;20312;-77
2023/07/03 06:10:23;;;;;;;0.10;0.10;;;;;;;;;;5025307;28;20148;-77
2023/07/03 06:12:50;;;;;;;0.10;0.10;;;;;;;;;;5023445;28;20058;-78
2023/07/03 06:15:16;;;;;;;0.63;0.63;;;;;;;;;;5005315;28;20137;-78
2023/07/03 06:17:44;;;;;;;0.10;0.10;;;;;;;;;;5021340;28;20273;-78
2023/07/03 06:20:10;;;;;;;0.10;0.10;;;;;;;;;;5022835;28;20054;-77
2023/07/03 06:22:38;;;;;;;1.40;1.35;;;;;;;;;;5024642;28;20053;-78
2023/07/03 06:25:06;;;;;;;0.10;0.10;;;;;;;;;;5019751;28;20085;-78
2023/07/03 06:27:33;;;;;;;0.20;0.20;;;;;;;;;;5020189;28;20108;-77
2023/07/03 06:29:59;;;;;;;0.10;0.10;;;;;;;;;;5016824;28;20038;-78
2023/07/03 06:32:26;;;;;;;0.10;0.10;;;;;;;;;;5001444;28;20573;-78
2023/07/03 06:34:52;;;;;;;0.32;0.32;;;;;;;;;;5015084;28;20054;-77
2023/07/03 06:37:19;;;;;;;0.10;0.10;;;;;;;;;;5017433;28;20053;-79
2023/07/03 06:39:45;;;;;;;0.10;0.10;;;;;;;;;;5017605;28;20057;-77
2023/07/03 06:42:11;;;;;;;0.10;0.10;;;;;;;;;;5003279;28;20077;-79
2023/07/03 06:44:40;;;;;;;0.10;0.10;;;;;;;;;;5005716;28;20054;-78
2023/07/03 06:47:06;;;;;;;0.10;0.10;;;;;;;;;;5023660;28;20133;-78
2023/07/03 06:49:34;;;;;;;0.10;0.10;;;;;;;;;;5018754;28;20796;-78
2023/07/03 06:52:01;;;;;;;0.30;0.30;;;;;;;;;;5020371;28;20074;-78
2023/07/03 06:54:27;;;;;;;0.50;0.50;;;;;;;;;;5023673;28;20411;-77
2023/07/03 06:56:54;;;;;;;0.10;0.10;;;;;;;;;;5023664;28;20054;-79
2023/07/03 06:59:20;;;;;;;0.10;0.10;;;;;;;;;;5023289;28;20522;-76
2023/07/03 07:01:46;;;;;;;0.10;0.10;;;;;;;;;;5023344;28;20140;-79
2023/07/03 07:04:14;;;;;;;1.02;0.80;;;;;;;;;;5021927;28;20487;-80
2023/07/03 07:06:41;;;;;;;0.10;0.10;;;;;;;;;;5024008;28;21165;-78
2023/07/03 07:09:07;;;;;;;0.30;0.30;;;;;;;;;;5022370;28;20433;-79
2023/07/03 07:11:35;;;;;;;0.60;0.17;;;;;;;;;;5027023;28;20064;-77
2023/07/03 07:14:04;;;;;;;0.25;0.25;;;;;;;;;;5023197;28;20133;-78
2023/07/03 07:16:34;;;;;;;0.52;0.40;;;;;;;;;;5022034;28;20050;-78
2023/07/03 07:19:02;;;;;;;0.63;0.63;;;;;;;;;;5135203;22;20049;-77
2023/07/03 07:21:29;;;;;;;0.20;0.20;;;;;;;;;;5036533;28;20097;-78
2023/07/03 07:23:57;;;;;;;0.45;0.30;;;;;;;;;;5028517;28;20513;-79
2023/07/03 07:26:33;;;;;;;0.30;0.30;;;;;;;;;;5040829;28;20084;-78
2023/07/03 07:29:00;;;;;;;4.85;3.50;;;;;;;;;;5032898;28;20060;-79
2023/07/03 07:31:28;;;;;;;0.35;0.35;;;;;;;;;;5029320;28;20145;-78
2023/07/03 07:33:54;;;;;;;0.17;0.17;;;;;;;;;;5036125;28;20559;-79
2023/07/03 07:36:22;;;;;;;0.22;0.22;;;;;;;;;;5037604;28;20510;-78
2023/07/03 07:38:49;;;;;;;0.20;0.20;;;;;;;;;;5032021;28;20126;-78
2023/07/03 07:41:15;;;;;;;0.10;0.10;;;;;;;;;;5036264;28;20522;-78
2023/07/03 07:43:42;;;;;;;0.15;0.15;;;;;;;;;;5041780;28;20580;-78
2023/07/03 07:46:08;;;;;;;0.10;0.10;;;;;;;;;;5026532;28;20569;-79
2023/07/03 07:48:35;;;;;;;0.10;0.10;;;;;;;;;;5063928;28;20515;-79
2023/07/03 07:51:06;;;;;;;0.10;0.10;;;;;;;;;;5039599;28;20046;-79
2023/07/03 07:53:32;;;;;;;0.20;0.20;;;;;;;;;;5028794;28;20141;-78
2023/07/03 07:59:20;;;;;;;0.20;0.20;;;;;;;;;;5026113;28;20567;-80
2023/07/03 08:01:46;;;;;;;0.25;0.20;;;;;;;;;;5040649;28;20054;-80
2023/07/03 08:04:13;;;;;;;0.10;0.10;;;;;;;;;;5041726;28;20057;-80
2023/07/03 08:06:40;;;;;;;0.10;0.10;;;;;;;;;;5032369;28;20054;-80
2023/07/03 08:09:06;;;;;;;0.10;0.10;;;;;;;;;;5041557;28;20054;-80
2023/07/03 08:11:33;;;;;;;0.10;0.10;;;;;;;;;;5036485;28;20045;-81
2023/07/03 08:13:59;;;;;;;0.17;0.17;;;;;;;;;;5034161;28;20058;-80
2023/07/03 08:16:26;;;;;;;0.63;0.63;;;;;;;;;;5033616;28;20100;-81
2023/07/03 08:18:52;;;;;;;0.10;0.10;;;;;;;;;;5049872;28;20087;-78
2023/07/03 08:21:19;;;;;;;0.20;0.20;;;;;;;;;;5051097;28;20057;-82
2023/07/03 08:23:45;;;;;;;0.57;0.45;;;;;;;;;;5063467;28;20533;-81
2023/07/03 08:26:19;;;;;;;0.10;0.10;;;;;;;;;;5064003;28;20588;-80
2023/07/03 08:28:45;;;;;;;0.20;0.20;;;;;;;;;;5052496;28;20068;-79
2023/07/03 08:31:11;;;;;;;0.10;0.10;;;;;;;;;;5063733;28;20155;-80
2023/07/03 08:33:38;;;;;;;3.50;1.17;;;;;;;;;;5063232;28;20057;-80
2023/07/03 08:36:05;;;;;;;0.10;0.10;;;;;;;;;;5060292;28;20061;-81
2023/07/03 08:38:35;;;;;;;0.20;0.20;;;;;;;;;;5064245;28;20522;-79
2023/07/03 08:41:03;;;;;;;0.60;0.60;;;;;;;;;;5059295;28;20627;-79
2023/07/03 08:43:35;;;;;;;0.20;0.20;;;;;;;;;;5051667;28;20120;-80
2023/07/03 08:46:02;;;;;;;0.38;0.17;;;;;;;;;;5053997;28;20966;-80
2023/07/03 08:48:31;;;;;;;0.10;0.10;;;;;;;;;;5061321;28;20081;-79
2023/07/03 08:50:59;;;;;;;0.10;0.10;;;;;;;;;;5068749;28;20151;-80
2023/07/03 08:53:32;;;;;;;0.10;0.10;;;;;;;;;;5060405;28;20053;-80
2023/07/03 08:56:16;;;;;;;0.28;0.28;;;;;;;;;;5067064;28;20045;-82
2023/07/03 08:58:44;;;;;;;0.10;0.10;;;;;;;;;;5069110;28;20435;-78
2023/07/03 09:01:10;;;;;;;0.52;0.50;;;;;;;;;;5065170;28;20053;-79
2023/07/03 09:03:38;;;;;;;0.63;0.47;;;;;;;;;;5068791;28;20141;-78
2023/07/03 09:06:13;;;;;;;0.20;0.20;;;;;;;;;;5054718;28;20073;-82
2023/07/03 09:08:45;;;;;;;0.30;0.30;;;;;;;;;;5060424;28;20049;-78
2023/07/03 09:11:13;;;;;;;0.13;0.13;;;;;;;;;;5051688;28;20061;-79
2023/07/03 09:13:43;;;;;;;0.47;0.47;;;;;;;;;;5058560;28;20073;-80
2023/07/03 09:16:19;;;;;;;0.30;0.30;;;;;;;;;;5056774;28;20550;-81
2023/07/03 09:18:48;;;;;;;0.45;0.45;;;;;;;;;;5050350;28;20045;-80
2023/07/03 09:21:15;;;;;;;0.20;0.20;;;;;;;;;;5058530;28;20045;-78
2023/07/03 09:23:47;;;;;;;1.05;0.95;;;;;;;;;;5061716;28;20051;-79
2023/07/03 09:26:18;;;;;;;0.38;0.32;;;;;;;;;;5056830;28;20061;-77
2023/07/03 09:28:44;;;;;;;0.10;0.10;;;;;;;;;;5052248;28;20551;-78
2023/07/03 09:31:11;;;;;;;0.40;0.40;;;;;;;;;;5047790;28;20065;-78
2023/07/03 09:33:37;;;;;;;0.20;0.20;;;;;;;;;;5059352;28;20057;-79
2023/07/03 09:36:18;;;;;;;0.25;0.22;;;;;;;;;;5061369;28;20100;-79
2023/07/03 09:38:45;;;;;;;0.10;0.10;;;;;;;;;;5057493;28;20079;-78
2023/07/03 09:41:12;;;;;;;0.20;0.20;;;;;;;;;;5052604;28;20194;-79
2023/07/03 09:43:43;;;;;;;3.30;0.30;;;;;;;;;;5058700;28;20144;-79
2023/07/03 09:46:12;;;;;;;0.20;0.20;;;;;;;;;;5074253;28;20120;-78
2023/07/03 09:48:38;;;;;;;0.17;0.17;;;;;;;;;;5059432;28;20597;-77
2023/07/03 09:51:06;;;;;;;0.57;0.50;;;;;;;;;;5070475;28;20110;-80
2023/07/03 09:53:37;;;;;;;0.10;0.10;;;;;;;;;;5057579;28;20080;-79
2023/07/03 09:56:10;;;;;;;0.20;0.20;;;;;;;;;;5050653;28;20085;-76
2023/07/03 09:58:42;;;;;;;0.57;0.45;;;;;;;;;;5054942;28;20137;-81
2023/07/03 10:01:15;;;;;;;0.10;0.10;;;;;;;;;;5052778;28;20111;-79
2023/07/03 10:04:04;;;;;;;0.10;0.10;;;;;;;;;;5063147;28;20048;-78
2023/07/03 10:07:05;;;;;;;0.20;0.20;;;;;;;;;;5071098;28;20049;-79
2023/07/03 10:09:33;;;;;;;0.17;0.17;;;;;;;;;;5067539;28;20097;-80
2023/07/03 10:12:02;;;;;;;0.20;0.20;;;;;;;;;;5047021;28;20061;-79
2023/07/03 10:14:43;;;;;;;1.45;0.82;;;;;;;;;;5054008;28;20053;-78
2023/07/03 10:17:12;;;;;;;0.30;0.30;;;;;;;;;;5052359;28;20049;-79
2023/07/03 10:19:45;;;;;;;0.10;0.10;;;;;;;;;;5049372;28;20140;-79
2023/07/03 10:22:12;;;;;;;0.40;0.40;;;;;;;;;;5064840;28;20056;-78
2023/07/03 10:24:39;;;;;;;0.10;0.10;;;;;;;;;;5052545;28;20140;-79
2023/07/03 10:27:07;;;;;;;0.20;0.20;;;;;;;;;;5069469;28;20059;-78
2023/07/03 10:29:37;;;;;;;0.20;0.20;;;;;;;;;;5068137;28;20061;-79
2023/07/03 10:32:03;;;;;;;;;;;;;;;;;;5060038;28;20107;-78
2023/07/03 10:34:39;;;;;;;0.20;0.20;;;;;;;;;;5061109;28;43689;-79
2023/07/03 10:37:07;;;;;;;0.20;0.20;;;;;;;;;;5047145;28;20514;-81
2023/07/03 10:39:41;;;;;;;0.10;0.10;;;;;;;;;;5045394;28;20088;-80
2023/07/03 10:42:28;;;;;;;0.10;0.10;;;;;;;;;;5079245;28;20075;-76
2023/07/03 10:45:12;;;;;;;0.45;0.15;;;;;;;;;;5068498;28;20432;-77
2023/07/03 10:48:00;;;;;;;0.30;0.30;;;;;;;;;;5058553;28;20060;-81
2023/07/03 10:50:30;;;;;;;0.43;0.25;;;;;;;;;;5046241;28;20051;-80
2023/07/03 10:53:02;;;;;;;0.10;0.10;;;;;;;;;;5043801;28;20501;-77
2023/07/03 10:55:29;;;;;;;0.20;0.20;;;;;;;;;;5045206;28;20084;-80
2023/07/03 10:58:03;;;;;;;0.10;0.10;;;;;;;;;;5051843;28;20135;-79
2023/07/03 11:00:29;;;;;;;0.10;0.10;;;;;;;;;;5046545;28;20099;-79
2023/07/03 11:03:14;;;;;;;0.15;0.15;;;;;;;;;;5047020;28;20057;-79
2023/07/03 11:05:47;;;;;;;0.10;0.10;;;;;;;;;;5046554;28;20054;-78
2023/07/03 11:08:33;;;;;;;1.42;0.25;;;;;;;;;;5059615;28;20057;-77
2023/07/03 11:11:06;;;;;;;0.10;0.10;;;;;;;;;;5066340;28;20057;-78
2023/07/03 11:13:55;;;;;;;0.10;0.10;;;;;;;;;;5048351;28;20063;-76
2023/07/03 11:16:25;;;;;;;0.28;0.28;;;;;;;;;;5022208;28;20052;-78
2023/07/03 11:18:51;;;;;;;0.20;0.20;;;;;;;;;;5069753;28;20164;-76
2023/07/03 11:21:29;;;;;;;0.10;0.10;;;;;;;;;;5094672;28;20148;-78
2023/07/03 11:24:05;;;;;;;0.60;0.30;;;;;;;;;;5061085;28;20131;-79
2023/07/03 11:26:36;;;;;;;0.10;0.10;;;;;;;;;;5082832;28;20052;-77
2023/07/03 11:29:07;;;;;;;0.10;0.10;;;;;;;;;;5076269;28;20538;-77
2023/07/03 11:31:34;;;;;;;0.20;0.20;;;;;;;;;;5095487;28;20048;-75
2023/07/03 11:34:02;;;;;;;0.20;0.20;;;;;;;;;;5086224;28;20044;-78
2023/07/03 11:36:37;;;;;;;0.10;0.10;;;;;;;;;;5084451;28;20052;-76
2023/07/03 11:39:29;;;;;;;0.10;0.10;;;;;;;;;;5083945;28;20130;-75
2023/07/03 11:42:01;;;;;;;0.20;0.20;;;;;;;;;;5103310;28;20052;-75
2023/07/03 11:44:31;;;;;;;0.20;0.20;;;;;;;;;;5093807;28;20059;-75
2023/07/03 11:46:58;;;;;;;1.25;0.77;;;;;;;;;;5078206;28;20057;-75
2023/07/03 11:49:30;;;;;;;0.10;0.10;;;;;;;;;;5074266;28;20052;-77
2023/07/03 11:51:58;;;;;;;2.05;0.50;;;;;;;;;;5107378;28;20080;-77
2023/07/03 11:54:27;;;;;;;0.65;0.40;;;;;;;;;;5073923;28;21314;-75
2023/07/03 11:56:56;;;;;;;1.00;0.50;;;;;;;;;;5059092;28;20059;-78
2023/07/03 11:59:25;;;;;;;0.10;0.10;;;;;;;;;;5073868;28;20054;-76
2023/07/03 12:01:53;;;;;;;0.10;0.10;;;;;;;;;;5087902;28;20125;-76
2023/07/03 12:04:48;;;;;;;0.10;0.10;;;;;;;;;;5096069;28;20125;-75
2023/07/03 12:07:24;;;;;;;0.10;0.10;;;;;;;;;;5065442;28;20215;-75
2023/07/03 12:09:50;;;;;;;0.13;0.13;;;;;;;;;;5083934;28;20136;-76
2023/07/03 12:12:19;;;;;;;0.20;0.20;;;;;;;;;;5058688;28;20053;-76
2023/07/03 12:15:10;;;;;;;0.25;0.25;;;;;;;;;;5067385;28;20053;-77
2023/07/03 12:17:37;;;;;;;0.20;0.20;;;;;;;;;;5082995;28;20049;-77
2023/07/03 12:20:06;;;;;;;0.10;0.10;;;;;;;;;;5055300;28;20111;-77
2023/07/03 12:22:43;;;;;;;0.20;0.20;;;;;;;;;;5066907;28;20053;-76
2023/07/03 12:25:17;;;;;;;0.15;0.15;;;;;;;;;;5082656;28;20057;-77
2023/07/03 12:27:44;;;;;;;0.10;0.10;;;;;;;;;;5106130;28;20542;-76
2023/07/03 12:30:19;;;;;;;0.20;0.20;;;;;;;;;;5096631;28;20803;-76
2023/07/03 12:32:48;;;;;;;0.20;0.20;;;;;;;;;;5092418;28;20052;-77
2023/07/03 12:35:16;;;;;;;8.77;1.10;;;;;;;;;;5100105;28;20471;-77
2023/07/03 12:37:43;;;;;;;0.20;0.20;;;;;;;;;;5082846;28;20099;-76
2023/07/03 12:43:32;;;;;;;0.13;0.13;;;;;;;;;;5084645;28;20044;-76
2023/07/03 12:45:59;;;;;;;0.20;0.20;;;;;;;;;;5075224;28;20060;-76
2023/07/03 12:48:25;;;;;;;0.20;0.20;;;;;;;;;;5065878;28;20049;-76
2023/07/03 12:50:55;;;;;;;0.43;0.35;;;;;;;;;;5082103;28;20151;-76
2023/07/03 12:53:22;;;;;;;0.60;0.60;;;;;;;;;;5090456;28;20057;-78
2023/07/03 12:55:54;;;;;;;0.20;0.20;;;;;;;;;;5078000;28;20055;-76
2023/07/03 12:58:22;;;;;;;0.10;0.10;;;;;;;;;;5065015;28;20507;-78
2023/07/03 13:00:58;;;;;;;0.17;0.17;;;;;;;;;;5081368;28;20055;-78
2023/07/03 13:03:25;;;;;;;0.10;0.10;;;;;;;;;;5067487;28;20791;-78
2023/07/03 13:05:51;;;;;;;0.20;0.20;;;;;;;;;;5080711;28;20060;-76
2023/07/03 13:08:18;;;;;;;0.20;0.20;;;;;;;;;;5053605;28;20053;-78
2023/07/03 13:10:58;;;;;;;0.10;0.10;;;;;;;;;;5059649;28;20051;-78
2023/07/03 13:13:24;;;;;;;0.10;0.10;;;;;;;;;;5055593;28;20135;-78
2023/07/03 13:15:50;;;;;;;0.22;0.22;;;;;;;;;;5061044;28;20092;-78
2023/07/03 13:18:20;;;;;;;0.10;0.10;;;;;;;;;;5083216;28;20059;-76
2023/07/03 13:21:00;;;;;;;0.10;0.10;;;;;;;;;;5084144;28;20052;-77
2023/07/03 13:23:44;;;;;;;0.10;0.10;;;;;;;;;;5085020;28;20053;-76
2023/07/03 13:26:12;;;;;;;0.20;0.20;;;;;;;;;;5067602;28;20497;-76
2023/07/03 13:29:01;;;;;;;0.15;0.15;;;;;;;;;;5085095;28;20150;-78
2023/07/03 13:35:03;;;;;;;1.85;0.30;;;;;;;;;;5039736;28;20539;-76
2023/07/03 13:37:35;;;;;;;0.57;0.25;;;;;;;;;;5072767;28;20053;-77
2023/07/03 13:40:02;;;;;;;0.20;0.20;;;;;;;;;;5081824;28;20051;-77
2023/07/03 13:42:29;;;;;;;0.10;0.10;;;;;;;;;;5071791;28;20057;-77
2023/07/03 13:44:56;;;;;;;1.15;0.35;;;;;;;;;;5070678;28;20963;-77
2023/07/03 13:47:22;;;;;;;0.20;0.20;;;;;;;;;;5058526;28;20627;-77
2023/07/03 13:49:54;;;;;;;0.10;0.10;;;;;;;;;;5061448;28;20148;-77
2023/07/03 13:52:20;;;;;;;0.20;0.20;;;;;;;;;;5050949;28;20053;-78
2023/07/03 13:54:47;;;;;;;0.10;0.10;;;;;;;;;;5050710;28;20056;-77
2023/07/03 13:57:13;;;;;;;0.13;0.13;;;;;;;;;;5062992;28;20525;-78
2023/07/03 13:59:39;;;;;;;0.10;0.10;;;;;;;;;;5070573;28;20067;-78
2023/07/03 14:02:06;;;;;;;0.10;0.10;;;;;;;;;;5079328;28;20151;-77
2023/07/03 14:04:33;;;;;;;0.10;0.10;;;;;;;;;;5064174;28;20095;-78
2023/07/03 14:06:59;;;;;;;0.20;0.20;;;;;;;;;;5086130;28;20143;-77
2023/07/03 14:09:25;;;;;;;0.30;0.30;;;;;;;;;;5069767;28;20524;-78
2023/07/03 14:11:52;;;;;;;0.30;0.30;;;;;;;;;;5081381;28;20243;-77
2023/07/03 14:14:19;;;;;;;0.10;0.10;;;;;;;;;;5062414;28;20063;-77
2023/07/03 14:16:49;;;;;;;0.10;0.10;;;;;;;;;;5078861;28;20049;-78
2023/07/03 14:19:15;;;;;;;0.20;0.20;;;;;;;;;;5065045;28;20512;-78
2023/07/03 14:21:42;;;;;;;0.10;0.10;;;;;;;;;;5072813;28;20961;-78
2023/07/03 14:24:09;;;;;;;0.17;0.17;;;;;;;;;;5090202;28;20059;-78
2023/07/03 14:26:35;;;;;;;0.10;0.10;;;;;;;;;;5066498;28;20044;-78
2023/07/03 14:29:02;;;;;;;0.10;0.10;;;;;;;;;;5063897;28;20057;-78
2023/07/03 14:31:29;;;;;;;0.10;0.10;;;;;;;;;;5055593;28;20107;-78
2023/07/03 14:33:55;;;;;;;0.10;0.10;;;;;;;;;;5054032;28;20203;-78
2023/07/03 14:36:22;;;;;;;0.28;0.22;;;;;;;;;;5084265;28;20056;-78
2023/07/03 14:38:49;;;;;;;0.52;0.52;;;;;;;;;;5061115;28;20048;-78
2023/07/03 14:41:15;;;;;;;0.50;0.50;;;;;;;;;;5086014;28;20605;-77
2023/07/03 14:43:44;;;;;;;0.22;0.22;;;;;;;;;;5064935;28;20059;-77
2023/07/03 14:46:11;;;;;;;0.20;0.20;;;;;;;;;;5057139;28;20056;-77
2023/07/03 14:48:37;;;;;;;0.10;0.10;;;;;;;;;;5083850;28;20516;-78
2023/07/03 14:51:03;;;;;;;0.10;0.10;;;;;;;;;;5085289;28;20048;-78
2023/07/03 14:53:30;;;;;;;0.10;0.10;;;;;;;;;;5087271;28;20088;-77
2023/07/03 14:55:57;;;;;;;0.10;0.10;;;;;;;;;;5052388;28;20048;-76
2023/07/03 14:58:27;;;;;;;0.20;0.20;;;;;;;;;;5070999;28;20067;-77
2023/07/03 15:00:53;;;;;;;0.28;0.28;;;;;;;;;;5073153;28;20052;-76
2023/07/03 15:03:20;;;;;;;0.10;0.10;;;;;;;;;;5071045;28;20877;-75
2023/07/03 15:05:46;;;;;;;0.55;0.30;;;;;;;;;;5069191;28;20513;-76
2023/07/03 15:08:15;;;;;;;0.20;0.20;;;;;;;;;;5092555;28;20138;-75
2023/07/03 15:10:41;;;;;;;0.30;0.30;;;;;;;;;;5082298;28;20052;-75
2023/07/03 15:13:07;;;;;;;0.10;0.10;;;;;;;;;;5055802;28;20057;-76
2023/07/03 15:15:34;;;;;;;0.22;0.20;;;;;;;;;;5046433;28;20561;-75
2023/07/03 15:18:01;;;;;;;0.20;0.20;;;;;;;;;;5046640;28;20079;-75
2023/07/03 15:20:28;;;;;;;0.10;0.10;;;;;;;;;;5069940;28;20080;-75
2023/07/03 15:22:58;;;;;;;0.10;0.10;;;;;;;;;;5062134;28;20671;-76
2023/07/03 15:25:24;;;;;;;0.20;0.20;;;;;;;;;;5064576;28;20087;-76
2023/07/03 15:27:51;;;;;;;0.10;0.10;;;;;;;;;;5082579;28;20056;-76
2023/07/03 15:30:17;;;;;;;0.82;0.60;;;;;;;;;;5092219;28;20056;-76
2023/07/03 15:32:51;;;;;;;0.15;0.15;;;;;;;;;;5053873;28;20057;-75
2023/07/03 15:35:18;;;;;;;0.10;0.10;;;;;;;;;;5084691;28;20131;-76
2023/07/03 15:37:47;;;;;;;0.22;0.22;;;;;;;;;;5070717;28;20103;-76
2023/07/03 15:41:02;;;;;;;0.20;0.20;;;;;;;;;;5064766;28;20056;-78
2023/07/03 15:43:31;;;;;;;0.20;0.20;;;;;;;;;;5002456;28;20046;-77
2023/07/03 15:46:00;;;;;;;0.10;0.10;;;;;;;;;;5013118;28;20061;-77
2023/07/03 15:48:26;;;;;;;0.20;0.20;;;;;;;;;;5048601;28;20056;-75
2023/07/03 15:50:57;;;;;;;1.35;0.90;;;;;;;;;;5070817;28;20057;-76
2023/07/03 15:53:23;;;;;;;0.20;0.20;;;;;;;;;;5096209;28;20111;-76
2023/07/03 15:56:16;;;;;;;0.10;0.10;;;;;;;;;;5066365;28;20136;-76